Time;durP1;ratioP1;P1;durP2;ratioP2;P2;SDS_P1;SDS_P2;PMS_P1;PMS_P2;Temp;Humidity;BMP_temperature;BMP_pressure;BME280_temperature;BME280_humidity;BME280_pressure;Samples;Min_cycle;Max_cycle;Signal;HPM_P1;HPM_P2
2023/10/17 00:01:44;;;;;;;20.15;13.57;;;;;;;6.42;100.00;101340.38;5034393;28;20056;-80
2023/10/17 00:04:32;;;;;;;21.30;13.82;;;;;;;6.29;100.00;101321.41;5041667;28;20088;-82
2023/10/17 00:07:41;;;;;;;19.05;14.25;;;;;;;6.23;100.00;101322.66;5041345;28;20053;-82
2023/10/17 00:10:21;;;;;;;24.33;15.15;;;;;;;6.29;100.00;101332.63;5041074;28;20168;-82
2023/10/17 00:12:51;;;;;;;20.73;14.93;;;;;;;6.07;100.00;101301.34;5031229;28;20046;-82
2023/10/17 00:15:27;;;;;;;21.65;15.20;;;;;;;6.16;100.00;101320.63;5032344;28;20076;-82
2023/10/17 00:18:00;;;;;;;21.33;14.52;;;;;;;6.07;100.00;101316.94;5039965;28;20470;-81
2023/10/17 00:20:37;;;;;;;22.95;14.88;;;;;;;5.96;100.00;101309.06;5038262;28;20124;-81
2023/10/17 00:23:06;;;;;;;21.25;14.18;;;;;;;6.00;100.00;101305.31;5036227;28;20049;-81
2023/10/17 00:25:42;;;;;;;23.67;14.15;;;;;;;5.95;100.00;101302.22;5042012;28;20045;-81
2023/10/17 00:28:12;;;;;;;24.63;14.95;;;;;;;5.82;100.00;101288.41;5050277;28;20060;-81
2023/10/17 00:30:41;;;;;;;24.15;15.02;;;;;;;5.97;100.00;101315.94;5043361;28;20050;-79
2023/10/17 00:33:12;;;;;;;21.70;14.88;;;;;;;6.01;100.00;101327.75;5044639;28;20054;-79
2023/10/17 00:35:46;;;;;;;22.75;14.35;;;;;;;5.82;100.00;101304.00;5044629;28;20080;-79
2023/10/17 00:38:15;;;;;;;20.48;14.60;;;;;;;5.75;100.00;101310.56;5044280;28;20045;-79
2023/10/17 00:40:48;;;;;;;20.42;14.15;;;;;;;5.75;100.00;101321.78;5041316;28;20503;-80
2023/10/17 00:43:15;;;;;;;21.88;14.13;;;;;;;5.78;100.00;101325.91;5040901;28;20049;-80
2023/10/17 00:45:45;;;;;;;20.63;14.02;;;;;;;5.76;100.00;101323.44;5040102;28;20068;-80
2023/10/17 00:48:20;;;;;;;18.52;13.20;;;;;;;5.68;100.00;101310.16;5041512;28;20107;-80
2023/10/17 00:50:57;;;;;;;22.02;13.85;;;;;;;5.63;100.00;101297.53;5036292;28;20050;-80
2023/10/17 00:53:26;;;;;;;20.75;13.27;;;;;;;5.53;100.00;101285.28;5031809;28;20052;-79
2023/10/17 00:55:59;;;;;;;16.80;12.70;;;;;;;5.67;100.00;101314.50;5037967;28;20419;-79
2023/10/17 00:58:30;;;;;;;19.95;13.38;;;;;;;5.54;100.00;101303.34;5046975;28;20084;-80
2023/10/17 01:01:09;;;;;;;20.42;12.57;;;;;;;5.64;100.00;101327.75;5040690;28;20046;-81
2023/10/17 01:03:41;;;;;;;18.48;12.32;;;;;;;5.53;100.00;101306.88;5035571;28;20445;-80
2023/10/17 01:06:13;;;;;;;19.40;12.70;;;;;;;5.65;100.00;101316.41;5038678;28;20042;-80
2023/10/17 01:08:44;;;;;;;16.80;12.68;;;;;;;5.52;100.00;101302.63;5038572;28;20062;-80
2023/10/17 01:11:16;;;;;;;;;;;;;;;5.71;100.00;101320.31;5032460;28;20249;-80
2023/10/17 01:13:43;;;;;;;20.50;13.20;;;;;;;5.67;100.00;101314.50;5038423;28;20298;-81
2023/10/17 01:16:15;;;;;;;21.45;12.80;;;;;;;5.73;100.00;101291.66;5041469;28;20045;-79
2023/10/17 01:18:47;;;;;;;18.80;12.98;;;;;;;5.80;100.00;101305.88;5043132;28;20064;-80
2023/10/17 01:21:17;;;;;;;19.00;12.63;;;;;;;5.70;100.00;101284.91;5037348;28;20051;-80
2023/10/17 01:23:45;;;;;;;21.23;12.93;;;;;;;5.84;100.00;101299.53;5038189;28;20511;-80
2023/10/17 01:26:20;;;;;;;22.00;12.25;;;;;;;5.86;100.00;101298.47;5038083;28;20476;-81
2023/10/17 01:28:48;;;;;;;18.45;12.25;;;;;;;5.85;100.00;101296.00;5031582;28;20054;-80
2023/10/17 01:31:16;;;;;;;22.60;13.00;;;;;;;5.86;100.00;101297.66;5031505;28;19967;-81
2023/10/17 01:33:43;;;;;;;19.42;12.63;;;;;;;5.94;100.00;101296.19;5045655;28;20053;-80
2023/10/17 01:36:16;;;;;;;20.42;12.82;;;;;;;6.02;100.00;101297.41;5038637;28;20415;-79
2023/10/17 01:38:45;;;;;;;16.92;11.20;;;;;;;6.07;100.00;101308.31;5045617;28;20068;-79
2023/10/17 01:41:13;;;;;;;17.42;12.35;;;;;;;6.11;100.00;101301.97;5030780;28;20530;-79
2023/10/17 01:43:41;;;;;;;18.15;11.57;;;;;;;6.21;100.00;101308.94;5031123;28;20088;-79
2023/10/17 01:46:11;;;;;;;22.73;12.15;;;;;;;6.17;100.00;101301.50;5036921;28;20046;-79
2023/10/17 01:48:38;;;;;;;17.15;11.85;;;;;;;6.14;100.00;101292.19;5033959;28;20045;-79
2023/10/17 01:51:07;;;;;;;20.00;11.85;;;;;;;6.19;100.00;101290.03;5036189;28;20049;-79
2023/10/17 01:53:35;;;;;;;19.10;11.88;;;;;;;6.18;100.00;101283.19;5036721;28;20072;-80
2023/10/17 01:56:14;;;;;;;16.88;12.18;;;;;;;6.26;100.00;101291.25;5065523;23;20049;-80
2023/10/17 01:58:50;;;;;;;17.63;11.73;;;;;;;6.24;100.00;101277.53;5058471;28;20053;-82
2023/10/17 02:01:18;;;;;;;16.55;10.93;;;;;;;6.37;100.00;101289.66;5060217;28;20522;-82
2023/10/17 02:03:45;;;;;;;15.90;11.30;;;;;;;6.34;100.00;101293.31;5059765;28;20496;-81
2023/10/17 02:06:16;;;;;;;16.90;11.18;;;;;;;6.31;100.00;101286.56;5059006;28;20067;-81
2023/10/17 02:08:43;;;;;;;15.77;11.13;;;;;;;6.35;100.00;101283.72;5059832;28;20060;-81
2023/10/17 02:11:14;;;;;;;17.20;11.38;;;;;;;6.27;100.00;101286.88;5057644;28;20048;-83
2023/10/17 02:13:45;;;;;;;16.92;11.13;;;;;;;6.26;100.00;101290.44;5056101;28;20144;-81
2023/10/17 02:16:13;;;;;;;14.35;10.75;;;;;;;6.22;100.00;101297.63;5063022;28;20049;-84
2023/10/17 02:18:44;;;;;;;18.23;11.75;;;;;;;6.24;100.00;101293.13;5052635;28;20053;-84
2023/10/17 02:21:12;;;;;;;20.30;11.35;;;;;;;6.23;100.00;101296.69;5060764;28;20069;-84
2023/10/17 02:23:48;;;;;;;16.73;10.32;;;;;;;6.16;100.00;101292.03;5060589;28;20060;-84
2023/10/17 02:26:16;;;;;;;16.90;10.73;;;;;;;6.13;100.00;101285.31;5059171;28;20484;-83
2023/10/17 02:28:46;;;;;;;16.52;11.85;;;;;;;6.13;100.00;101285.31;5060514;28;20052;-83
2023/10/17 02:31:15;;;;;;;14.70;11.00;;;;;;;6.08;100.00;101286.59;5063911;28;20112;-83
2023/10/17 02:33:43;;;;;;;17.38;11.52;;;;;;;6.05;100.00;101287.63;5060237;28;20072;-83
2023/10/17 02:36:13;;;;;;;19.02;12.90;;;;;;;5.89;100.00;101277.50;5059157;28;20045;-82
2023/10/17 02:38:40;;;;;;;20.17;12.57;;;;;;;5.93;100.00;101283.31;5059215;28;20045;-81
2023/10/17 02:41:13;;;;;;;21.33;12.02;;;;;;;5.89;100.00;101280.09;5059557;28;20131;-82
2023/10/17 02:43:41;;;;;;;19.67;11.70;;;;;;;5.94;100.00;101280.63;5059157;28;20510;-82
2023/10/17 02:46:08;;;;;;;16.10;11.38;;;;;;;6.00;100.00;101274.16;5059262;28;20045;-83
2023/10/17 02:48:39;;;;;;;20.95;12.25;;;;;;;6.05;100.00;101286.81;5068000;28;20049;-84
2023/10/17 02:51:11;;;;;;;18.80;11.60;;;;;;;6.04;100.00;101280.78;5060593;28;20051;-83
2023/10/17 02:53:43;;;;;;;16.75;11.13;;;;;;;6.03;100.00;101270.50;5059678;28;20045;-83
2023/10/17 02:56:19;;;;;;;18.60;11.88;;;;;;;6.04;100.00;101265.19;5057087;28;20116;-84
2023/10/17 02:58:50;;;;;;;19.88;11.48;;;;;;;6.09;100.00;101257.91;5055159;28;20563;-84
2023/10/17 03:01:17;;;;;;;14.82;10.45;;;;;;;6.09;100.00;101272.66;5050959;28;20463;-84
2023/10/17 03:03:50;;;;;;;15.85;11.18;;;;;;;6.11;100.00;101269.00;5060466;28;20044;-83
2023/10/17 03:06:18;;;;;;;16.83;11.10;;;;;;;6.08;100.00;101265.81;5058820;28;20045;-83
2023/10/17 03:08:50;;;;;;;18.65;11.02;;;;;;;6.06;100.00;101252.09;5059439;28;20065;-83
2023/10/17 03:11:17;;;;;;;17.17;10.60;;;;;;;6.04;100.00;101254.81;5058666;28;20110;-83
2023/10/17 03:13:45;;;;;;;17.40;9.68;;;;;;;6.06;100.00;101255.53;5058615;28;20482;-81
2023/10/17 03:16:17;;;;;;;14.80;9.18;;;;;;;6.14;100.00;101253.19;5058131;28;20457;-83
2023/10/17 03:18:50;;;;;;;13.32;8.38;;;;;;;6.12;100.00;101249.88;5058308;28;20123;-83
2023/10/17 03:21:18;;;;;;;14.85;8.85;;;;;;;6.13;100.00;101255.91;5061471;28;20056;-83
2023/10/17 03:23:49;;;;;;;14.55;8.60;;;;;;;6.16;100.00;101260.84;5062684;28;20075;-83
2023/10/17 03:26:18;;;;;;;12.95;8.32;;;;;;;6.14;100.00;101252.38;5063443;28;20108;-83
2023/10/17 03:28:45;;;;;;;15.43;8.77;;;;;;;6.12;100.00;101247.28;5063109;28;20485;-83
2023/10/17 03:31:20;;;;;;;11.32;8.02;;;;;;;6.09;100.00;101237.13;5068201;28;20041;-82
2023/10/17 03:33:50;;;;;;;13.65;9.18;;;;;;;6.14;100.00;101245.41;5077913;28;20037;-83
2023/10/17 03:39:17;;;;;;;13.35;8.38;;;;;;;6.24;100.00;101243.75;5061835;28;20041;-84
2023/10/17 03:41:44;;;;;;;10.80;8.15;;;;;;;6.25;100.00;101244.59;5063261;28;20064;-83
2023/10/17 03:44:15;;;;;;;10.80;7.60;;;;;;;6.30;100.00;101239.88;5062118;28;20053;-84
2023/10/17 03:46:46;;;;;;;14.40;7.75;;;;;;;6.33;100.00;101245.69;5062688;28;20049;-83
2023/10/17 03:49:18;;;;;;;11.77;7.95;;;;;;;6.40;100.00;101245.22;5062188;28;20053;-84
2023/10/17 03:51:51;;;;;;;14.73;8.20;;;;;;;6.32;100.00;101249.22;5062521;28;20048;-84
2023/10/17 03:54:18;;;;;;;13.43;7.85;;;;;;;6.23;100.00;101246.47;5054017;28;20053;-84
2023/10/17 03:56:46;;;;;;;15.48;8.68;;;;;;;6.26;100.00;101252.28;5061385;28;20102;-83
2023/10/17 03:59:27;;;;;;;13.10;8.60;;;;;;;6.19;100.00;101248.47;5062129;28;20072;-84
2023/10/17 04:01:54;;;;;;;14.02;8.70;;;;;;;6.20;100.00;101257.91;5062799;28;20049;-83
2023/10/17 04:04:32;;;;;;;14.55;7.93;;;;;;;6.25;100.00;101257.56;5062849;28;20049;-83
2023/10/17 04:07:01;;;;;;;13.40;8.20;;;;;;;6.24;100.00;101259.34;5062432;28;20056;-84
2023/10/17 04:09:31;;;;;;;12.35;7.82;;;;;;;6.21;100.00;101267.38;5061832;28;20082;-83
2023/10/17 04:12:02;;;;;;;15.50;8.82;;;;;;;6.26;100.00;101267.03;5061847;28;20049;-84
2023/10/17 04:14:33;;;;;;;12.88;7.85;;;;;;;6.26;100.00;101267.03;5062617;28;20060;-84
2023/10/17 04:17:02;;;;;;;15.85;8.30;;;;;;;6.17;100.00;101250.34;5065504;28;20045;-82
2023/10/17 04:19:31;;;;;;;16.45;8.68;;;;;;;6.21;100.00;101256.97;5060311;28;20108;-82
2023/10/17 04:22:07;;;;;;;14.13;8.55;;;;;;;6.13;100.00;101242.91;5060091;28;20067;-82
2023/10/17 04:24:38;;;;;;;14.65;8.50;;;;;;;6.20;100.00;101244.91;5057784;28;20065;-83
2023/10/17 04:27:19;;;;;;;12.77;8.23;;;;;;;6.28;100.00;101249.56;5060834;28;20051;-82
2023/10/17 04:29:51;;;;;;;13.93;8.07;;;;;;;6.26;100.00;101252.28;5060323;28;20056;-82
2023/10/17 04:32:19;;;;;;;14.20;7.82;;;;;;;6.30;100.00;101248.50;5059509;28;20098;-81
2023/10/17 04:34:48;;;;;;;13.80;8.32;;;;;;;6.32;100.00;101248.41;5060740;28;20056;-82
2023/10/17 04:37:24;;;;;;;15.85;9.10;;;;;;;6.33;100.00;101252.66;5060237;28;20041;-82
2023/10/17 04:39:57;;;;;;;13.88;8.60;;;;;;;6.33;100.00;101248.28;5060060;28;20061;-81
2023/10/17 04:42:35;;;;;;;15.98;9.35;;;;;;;6.32;100.00;101238.81;5052854;28;20132;-82
2023/10/17 04:45:05;;;;;;;13.80;9.00;;;;;;;6.30;100.00;101240.72;5060308;28;20517;-82
2023/10/17 04:47:32;;;;;;;15.82;8.32;;;;;;;6.28;100.00;101226.16;5060442;28;20053;-82
2023/10/17 04:50:01;;;;;;;16.50;9.38;;;;;;;6.30;100.00;101221.69;5059565;28;20049;-82
2023/10/17 04:52:40;;;;;;;16.88;9.35;;;;;;;6.41;100.00;101223.50;5053842;28;20053;-82
2023/10/17 04:55:21;;;;;;;14.45;9.05;;;;;;;6.41;100.00;101223.50;5059791;28;20075;-82
2023/10/17 04:57:55;;;;;;;13.90;9.20;;;;;;;6.44;100.00;101215.47;5060435;28;20045;-82
2023/10/17 05:00:43;;;;;;;16.70;9.25;;;;;;;6.42;100.00;101210.38;5051345;28;20048;-82
2023/10/17 05:03:14;;;;;;;13.98;8.68;;;;;;;6.56;100.00;101222.34;5059395;28;20049;-83
2023/10/17 05:06:00;;;;;;;12.52;8.32;;;;;;;6.61;100.00;101222.84;5060536;28;20074;-81
2023/10/17 05:08:32;;;;;;;14.40;8.98;;;;;;;6.67;100.00;101232.75;5053858;28;20068;-81
2023/10/17 06:17:23;;;;;;;11.55;9.13;;;;;;;6.42;100.00;101274.53;4998437;28;20046;-84
2023/10/17 06:19:53;;;;;;;12.80;9.15;;;;;;;6.42;100.00;101279.75;5044605;28;20049;-84
2023/10/17 06:30:46;;;;;;;17.02;10.38;;;;;;;6.63;100.00;101278.13;5064420;28;20070;-84
2023/10/17 06:33:19;;;;;;;18.25;10.77;;;;;;;6.63;100.00;101286.75;5064135;28;20481;-83
2023/10/17 06:35:46;;;;;;;14.73;9.52;;;;;;;6.67;100.00;101289.97;5057153;28;20049;-85
2023/10/17 06:38:16;;;;;;;14.75;9.77;;;;;;;6.70;100.00;101289.72;5058073;28;20048;-84
2023/10/17 06:40:46;;;;;;;14.18;9.57;;;;;;;6.77;100.00;101285.72;5058559;28;20046;-84
2023/10/17 06:43:14;;;;;;;13.85;9.85;;;;;;;6.78;100.00;101284.78;5057975;28;20067;-84
2023/10/17 06:45:54;;;;;;;18.80;9.73;;;;;;;6.65;100.00;101278.84;5056054;28;20060;-85
2023/10/17 06:48:31;;;;;;;17.05;10.07;;;;;;;6.82;100.00;101277.59;5050929;28;20166;-84
2023/10/17 06:53:47;;;;;;;14.40;9.30;;;;;;;7.10;100.00;101276.28;5058223;28;20600;-85
2023/10/17 06:56:13;;;;;;;14.90;8.82;;;;;;;7.07;100.00;101266.16;5058260;28;20057;-84
2023/10/17 06:58:42;;;;;;;18.38;8.88;;;;;;;7.19;100.00;101270.38;5060298;28;20517;-84
2023/10/17 07:01:24;;;;;;;14.38;8.43;;;;;;;7.25;100.00;101255.13;5061556;28;20117;-85
2023/10/17 07:03:54;;;;;;;10.18;8.05;;;;;;;7.27;100.00;101253.22;5062968;28;20167;-84
2023/10/17 07:06:25;;;;;;;12.77;7.28;;;;;;;7.36;100.00;101250.88;5057443;28;20057;-85
2023/10/17 07:08:53;;;;;;;11.65;7.10;;;;;;;7.49;100.00;101252.38;5064504;28;20041;-84
2023/10/17 07:11:26;;;;;;;14.23;7.00;;;;;;;7.48;100.00;101239.50;5055690;28;20049;-84
2023/10/17 07:14:10;;;;;;;9.52;6.88;;;;;;;7.60;100.00;101243.69;5060710;28;20041;-85
2023/10/17 07:16:48;;;;;;;11.68;6.50;;;;;;;7.69;99.56;101226.53;5059048;28;20052;-85
2023/10/17 07:22:06;;;;;;;10.90;6.70;;;;;;;7.64;98.93;101224.28;5058619;28;20052;-85
2023/10/17 07:24:33;;;;;;;13.25;6.85;;;;;;;7.65;98.49;101225.94;5058136;28;20118;-85
2023/10/17 07:27:01;;;;;;;10.70;6.97;;;;;;;7.80;98.34;101229.91;5057924;28;20055;-85
2023/10/17 07:29:33;;;;;;;14.95;7.38;;;;;;;7.78;97.94;101216.19;5058371;28;20068;-84
2023/10/17 07:32:09;;;;;;;15.35;7.40;;;;;;;7.94;97.18;101221.00;5058299;28;20099;-85
2023/10/17 07:34:35;;;;;;;11.98;7.43;;;;;;;7.98;96.58;101217.19;5057932;28;20049;-85
2023/10/17 07:37:12;;;;;;;13.27;7.45;;;;;;;7.99;95.63;101213.63;5058977;28;20076;-85
2023/10/17 08:20:58;;;;;;;9.63;6.00;;;;;;;8.70;91.80;101166.88;4873139;29;20075;-85
2023/10/17 08:23:26;;;;;;;9.98;5.43;;;;;;;9.05;91.04;101171.66;4922509;29;20116;-83
2023/10/17 08:25:59;;;;;;;8.88;5.38;;;;;;;9.15;90.06;101172.53;4998595;28;20050;-86
2023/10/17 08:28:37;;;;;;;7.65;6.03;;;;;;;9.22;89.36;101163.19;5054048;28;20152;-81
2023/10/17 08:31:17;;;;;;;12.13;6.47;;;;;;;9.14;89.52;101171.69;5063757;28;20056;-85
2023/10/17 08:33:47;;;;;;;9.48;6.18;;;;;;;9.44;89.49;101168.19;5062798;28;20057;-84
2023/10/17 08:36:23;;;;;;;10.70;5.63;;;;;;;9.57;88.67;101176.59;5061882;28;20061;-86
2023/10/17 08:38:54;;;;;;;13.45;6.20;;;;;;;9.45;87.97;101167.22;5062746;28;20049;-84
2023/10/17 08:41:26;;;;;;;9.77;5.03;;;;;;;9.57;87.40;101150.44;5056564;28;20055;-84
2023/10/17 09:04:42;;;;;;;8.35;4.70;;;;;;;10.08;84.20;101167.63;5045394;28;20053;-78
2023/10/17 09:07:19;;;;;;;12.43;5.03;;;;;;;9.78;83.23;101150.34;5059617;28;20044;-78
2023/10/17 09:10:14;;;;;;;10.35;4.60;;;;;;;9.58;83.25;101128.59;5058500;28;20056;-78
2023/10/17 09:12:43;;;;;;;7.55;4.60;;;;;;;9.77;83.70;101159.13;5054551;28;20049;-78
2023/10/17 09:15:35;;;;;;;7.13;4.68;;;;;;;9.65;82.23;101124.47;5053093;28;20144;-78
2023/10/17 09:18:09;;;;;;;7.38;5.05;;;;;;;9.71;82.42;101124.88;5053148;28;20134;-78
2023/10/17 09:20:49;;;;;;;7.07;4.45;;;;;;;9.93;83.12;101158.56;5053418;28;20063;-78
2023/10/17 09:23:26;;;;;;;6.38;4.60;;;;;;;9.82;82.35;101127.34;5052828;28;20522;-78
2023/10/17 09:25:55;;;;;;;7.38;4.53;;;;;;;9.79;82.18;101151.97;5054524;28;20435;-78
2023/10/17 09:28:24;;;;;;;7.88;4.40;;;;;;;9.66;82.09;101140.97;5055165;28;20045;-79
2023/10/17 09:30:58;;;;;;;9.18;4.38;;;;;;;9.54;81.08;101132.44;5054305;28;20049;-78
2023/10/17 09:33:30;;;;;;;6.45;4.50;;;;;;;9.66;81.32;101146.19;5052645;28;20065;-78
2023/10/17 09:35:59;;;;;;;6.18;4.15;;;;;;;9.68;80.44;101128.59;5059163;28;20105;-78
2023/10/17 09:38:26;;;;;;;9.35;4.28;;;;;;;9.72;80.64;101137.81;5057770;28;20041;-79
2023/10/17 09:40:58;;;;;;;5.55;3.92;;;;;;;9.97;80.91;101139.84;5056700;28;20064;-79
2023/10/17 09:43:25;;;;;;;6.65;4.15;;;;;;;10.05;80.25;101126.06;5056145;28;20049;-79
2023/10/17 09:45:53;;;;;;;7.25;4.22;;;;;;;10.14;79.99;101127.84;5056129;28;20136;-79
2023/10/17 09:48:32;;;;;;;6.60;3.90;;;;;;;10.09;79.21;101116.97;5055072;28;20469;-79
2023/10/17 09:51:02;;;;;;;5.97;4.00;;;;;;;10.09;78.94;101119.59;5055460;28;20053;-79
2023/10/17 09:53:33;;;;;;;8.48;4.13;;;;;;;9.90;79.09;101112.63;5056064;28;20053;-79
2023/10/17 09:56:06;;;;;;;7.15;4.22;;;;;;;9.69;79.06;101108.50;5047101;28;20077;-79
2023/10/17 09:58:34;;;;;;;6.05;3.88;;;;;;;9.74;79.08;101111.53;5055005;28;20054;-78
2023/10/17 10:01:06;;;;;;;6.22;3.70;;;;;;;9.70;78.42;101115.38;5054602;28;20132;-78
2023/10/17 10:03:33;;;;;;;6.22;3.75;;;;;;;9.81;78.16;101115.25;5054060;28;20059;-79
2023/10/17 10:06:22;;;;;;;6.43;3.70;;;;;;;9.83;78.02;101127.22;5055325;28;20049;-79
2023/10/17 10:08:54;;;;;;;9.50;4.10;;;;;;;9.81;77.89;101120.47;5054623;28;20045;-79
2023/10/17 10:11:22;;;;;;;5.85;3.83;;;;;;;10.02;77.80;101110.66;5054521;28;20120;-79
2023/10/17 10:14:08;;;;;;;8.82;3.80;;;;;;;10.14;76.92;101096.47;5054610;28;20053;-79
2023/10/17 10:16:53;;;;;;;5.10;3.67;;;;;;;10.44;76.58;101100.66;5048790;28;20045;-78
2023/10/17 10:19:21;;;;;;;9.82;3.60;;;;;;;10.43;76.81;101100.78;5054447;28;20056;-79
2023/10/17 10:21:54;;;;;;;6.75;4.72;;;;;;;10.77;76.56;101107.13;5054169;28;20110;-78
2023/10/17 10:24:26;;;;;;;5.32;3.80;;;;;;;10.86;75.58;101090.56;5053898;28;20055;-79
2023/10/17 10:27:18;;;;;;;6.97;4.23;;;;;;;11.12;74.92;101076.75;5053136;28;20052;-78
2023/10/17 10:29:47;;;;;;;5.28;3.72;;;;;;;11.15;74.63;101065.97;5052352;28;20411;-78
2023/10/17 10:32:30;;;;;;;5.90;3.38;;;;;;;10.89;74.55;101069.28;5053202;28;20135;-79
2023/10/17 10:34:57;;;;;;;6.13;3.40;;;;;;;10.92;74.42;101069.00;5053468;28;20052;-79
2023/10/17 10:37:24;;;;;;;5.75;4.00;;;;;;;10.83;73.54;101058.63;5054179;28;20549;-79
2023/10/17 10:40:16;;;;;;;8.82;3.92;;;;;;;11.15;73.75;101063.34;5053446;28;20462;-79
2023/10/17 10:42:48;;;;;;;6.38;3.58;;;;;;;11.36;73.14;101074.34;5054015;28;20061;-79
2023/10/17 10:45:31;;;;;;;6.30;3.83;;;;;;;11.50;72.76;101080.84;5054043;28;20061;-79
2023/10/17 10:48:04;;;;;;;6.07;3.72;;;;;;;11.24;72.68;101070.31;5052678;28;20048;-78
2023/10/17 10:50:31;;;;;;;;;;;;;;;11.52;72.09;101065.81;5054491;28;20060;-79
2023/10/17 10:53:00;;;;;;;5.25;3.65;;;;;;;11.60;71.17;101064.06;5052946;28;19980;-79
2023/10/17 10:55:27;;;;;;;5.82;3.38;;;;;;;11.47;71.91;101068.03;5054163;28;20091;-79
2023/10/17 10:57:55;;;;;;;5.97;3.50;;;;;;;11.59;71.81;101062.44;5053171;28;20099;-79
2023/10/17 11:00:25;;;;;;;5.60;3.45;;;;;;;11.79;71.75;101054.41;5053995;23;20194;-79
2023/10/17 11:06:57;;;;;;;;;;;;;;;;;;;;;
2023/10/17 11:09:26;;;;;;;8.90;3.63;;;;;;;12.01;70.11;101050.44;5033776;28;20056;-79
2023/10/17 11:12:06;;;;;;;5.40;3.63;;;;;;;11.97;70.10;101044.69;5032569;28;20050;-79
2023/10/17 11:58:35;;;;;;;6.38;3.22;;;;;;;12.67;66.42;100987.56;5076484;23;20146;-78
2023/10/17 12:01:04;;;;;;;6.35;3.55;;;;;;;12.56;67.01;100988.69;5057744;28;20113;-78
2023/10/17 12:03:41;;;;;;;6.25;3.22;;;;;;;12.79;66.33;100973.13;5054726;28;20048;-78
2023/10/17 12:06:31;;;;;;;;;;;;;;;;;;;;;
2023/10/17 12:09:17;;;;;;;4.18;2.88;;;;;;;13.10;64.54;100969.91;5033483;28;20431;-78
2023/10/17 12:11:47;;;;;;;4.80;2.85;;;;;;;12.84;63.62;100955.09;5036238;28;20049;-79
2023/10/17 12:14:21;;;;;;;5.88;3.17;;;;;;;12.90;64.15;100969.38;5036787;28;20076;-78
2023/10/17 12:16:55;;;;;;;4.72;2.67;;;;;;;13.05;63.54;100965.13;5036887;28;20050;-78
2023/10/17 12:19:22;;;;;;;4.28;2.80;;;;;;;13.34;63.50;100972.53;5037395;28;20170;-79
2023/10/17 12:22:13;;;;;;;3.05;2.58;;;;;;;12.95;62.37;100936.38;5038073;28;20053;-78
2023/10/17 12:24:49;;;;;;;5.60;3.05;;;;;;;13.02;62.48;100931.31;5035792;28;20056;-78
2023/10/17 12:27:22;;;;;;;4.70;2.67;;;;;;;13.23;61.81;100926.38;5035397;28;20049;-78
2023/10/17 12:29:56;;;;;;;5.15;3.10;;;;;;;13.17;61.62;100924.44;5034490;28;20053;-78
2023/10/17 12:33:08;;;;;;;5.35;3.67;;;;;;;13.19;61.76;100937.41;5027098;28;20053;-78
2023/10/17 12:38:44;;;;;;;5.82;2.75;;;;;;;13.33;62.61;100938.53;5026778;28;20045;-77
2023/10/17 12:41:14;;;;;;;3.92;3.00;;;;;;;13.32;61.31;100902.72;5035116;28;20057;-78
2023/10/17 12:43:42;;;;;;;4.22;3.00;;;;;;;13.34;61.71;100904.19;5035527;28;20588;-78
2023/10/17 12:46:23;;;;;;;4.20;3.17;;;;;;;13.53;61.09;100924.88;5035979;28;20053;-77
2023/10/17 12:48:53;;;;;;;4.82;3.00;;;;;;;13.53;61.14;100929.31;5039090;28;20459;-78
2023/10/17 12:51:23;;;;;;;5.13;2.65;;;;;;;13.36;61.18;100909.28;5038482;28;20053;-78
2023/10/17 12:54:06;;;;;;;4.05;3.22;;;;;;;13.55;61.25;100928.16;5034411;28;20513;-78
2023/10/17 12:56:37;;;;;;;;;;;;;;;13.51;60.68;100916.31;5027772;28;20057;-77
2023/10/17 12:59:12;;;;;;;4.07;2.45;;;;;;;13.50;60.45;100898.91;5033047;28;19928;-78
2023/10/17 13:01:51;;;;;;;5.82;2.97;;;;;;;13.49;61.09;100891.19;5033789;28;20085;-78
2023/10/17 13:04:19;;;;;;;6.47;3.13;;;;;;;13.34;60.13;100884.97;5033201;28;20137;-77
2023/10/17 13:06:53;;;;;;;4.43;3.00;;;;;;;13.41;60.57;100878.88;5033063;28;20412;-77
2023/10/17 13:09:20;;;;;;;3.42;2.92;;;;;;;13.46;60.70;100888.91;5033544;28;20329;-78
2023/10/17 13:11:46;;;;;;;3.33;2.53;;;;;;;13.52;60.44;100889.03;5033925;28;20165;-78
2023/10/17 13:14:13;;;;;;;2.90;2.60;;;;;;;13.37;60.15;100856.56;5033700;28;20464;-77
2023/10/17 13:16:41;;;;;;;3.40;2.70;;;;;;;13.52;60.04;100867.19;5033718;28;20061;-77
2023/10/17 13:19:29;;;;;;;5.13;3.20;;;;;;;13.46;59.29;100854.72;5032863;28;20327;-78
2023/10/17 13:21:57;;;;;;;4.60;2.90;;;;;;;13.47;59.79;100885.28;5032894;28;20099;-77
2023/10/17 13:24:25;;;;;;;3.85;2.83;;;;;;;13.75;60.55;100881.22;5033025;28;20196;-77
2023/10/17 13:26:53;;;;;;;9.35;3.20;;;;;;;13.72;60.67;100883.38;5032498;28;20099;-77
2023/10/17 13:29:22;;;;;;;4.00;3.03;;;;;;;13.60;59.69;100864.53;5033022;28;20045;-77
2023/10/17 13:31:51;;;;;;;3.90;2.70;;;;;;;13.43;59.42;100850.63;5034697;28;20143;-77
2023/10/17 13:34:22;;;;;;;5.88;2.28;;;;;;;13.70;59.65;100866.97;5034522;28;20444;-77
2023/10/17 13:36:49;;;;;;;4.25;2.70;;;;;;;13.58;59.14;100872.59;5035129;28;20107;-77
2023/10/17 13:39:15;;;;;;;5.30;3.22;;;;;;;13.68;58.79;100859.25;5035681;28;20530;-78
2023/10/17 13:41:42;;;;;;;4.80;2.67;;;;;;;13.70;59.24;100872.25;5037096;28;20089;-78
2023/10/17 13:44:11;;;;;;;3.90;2.70;;;;;;;13.58;59.61;100862.09;5033227;28;20052;-78
2023/10/17 13:46:38;;;;;;;3.78;2.67;;;;;;;13.68;60.55;100866.31;5032909;28;20530;-78
2023/10/17 13:49:06;;;;;;;3.30;2.58;;;;;;;13.84;60.12;100884.66;5032876;28;20128;-78
2023/10/17 13:51:35;;;;;;;3.63;2.72;;;;;;;13.75;59.36;100870.72;5032603;28;20132;-78
2023/10/17 13:54:01;;;;;;;3.55;2.58;;;;;;;13.67;58.64;100868.13;5032533;28;20053;-78
2023/10/17 13:56:28;;;;;;;5.47;2.63;;;;;;;13.69;58.81;100855.63;5025110;28;20150;-78
2023/10/17 13:58:56;;;;;;;2.55;2.20;;;;;;;13.73;58.97;100858.72;5033387;28;20045;-79
2023/10/17 14:01:31;;;;;;;5.05;3.00;;;;;;;13.82;59.06;100862.97;5033719;28;20051;-77
2023/10/17 14:04:00;;;;;;;2.75;2.40;;;;;;;13.83;58.59;100854.91;5031832;28;20159;-77
2023/10/17 14:06:33;;;;;;;4.00;2.92;;;;;;;13.79;58.79;100850.16;5035602;28;20049;-78
2023/10/17 14:09:01;;;;;;;4.68;2.45;;;;;;;13.54;58.65;100831.03;5036651;28;20049;-78
2023/10/17 14:11:27;;;;;;;4.30;2.47;;;;;;;13.70;59.47;100849.38;5033584;28;20046;-79
2023/10/17 14:13:54;;;;;;;5.43;2.63;;;;;;;13.65;59.66;100837.75;5033996;28;20055;-78
2023/10/17 14:16:22;;;;;;;3.70;2.63;;;;;;;13.55;59.57;100833.50;5033314;28;20555;-79
2023/10/17 14:19:02;;;;;;;3.30;2.60;;;;;;;13.42;59.59;100841.09;5034106;28;20058;-79
2023/10/17 14:21:36;;;;;;;4.50;2.83;;;;;;;13.37;60.09;100834.72;5034497;28;20392;-78
2023/10/17 14:24:07;;;;;;;2.72;2.53;;;;;;;13.30;60.69;100831.94;5033390;28;20045;-77
2023/10/17 14:26:34;;;;;;;3.53;2.00;;;;;;;13.25;60.35;100816.66;5032499;28;20070;-78
2023/10/17 14:29:00;;;;;;;6.93;2.30;;;;;;;13.40;60.18;100819.41;5033678;28;20060;-78
2023/10/17 14:31:29;;;;;;;3.45;2.33;;;;;;;13.42;59.92;100812.19;5031981;28;20559;-78
2023/10/17 14:33:57;;;;;;;3.22;2.65;;;;;;;13.46;60.16;100816.13;5032827;28;20309;-78
2023/10/17 14:36:24;;;;;;;6.03;2.83;;;;;;;13.50;60.19;100820.03;5032686;28;20053;-78
2023/10/17 14:38:52;;;;;;;5.05;2.80;;;;;;;13.49;60.43;100821.03;5032679;28;22352;-78
2023/10/17 14:41:23;;;;;;;3.88;2.58;;;;;;;13.50;61.00;100812.16;5033009;28;20107;-79
2023/10/17 14:43:50;;;;;;;4.72;2.50;;;;;;;13.41;59.60;100800.03;5032700;28;20042;-78
2023/10/17 14:46:17;;;;;;;4.78;2.80;;;;;;;13.52;59.84;100804.91;5032571;28;20064;-78
2023/10/17 14:48:45;;;;;;;4.10;2.75;;;;;;;13.51;59.61;100808.53;5032503;28;20504;-78
2023/10/17 14:51:12;;;;;;;3.70;2.25;;;;;;;13.43;59.35;100800.69;5021962;28;20050;-78
2023/10/17 14:53:42;;;;;;;4.35;2.53;;;;;;;13.47;60.04;100809.88;5018296;28;20045;-78
2023/10/17 14:56:13;;;;;;;3.03;2.70;;;;;;;13.41;60.02;100805.28;5024055;28;20045;-78
2023/10/17 14:58:41;;;;;;;4.82;2.78;;;;;;;13.47;59.97;100803.78;5032756;28;20136;-78
2023/10/17 15:01:08;;;;;;;3.45;2.70;;;;;;;13.47;59.66;100799.34;5032333;28;20123;-78